sensor_id;sensor_type;location;lat;lon;timestamp;pressure;altitude;pressure_sealevel;temperature;humidity
45323;BME280;31382;50.200;8.674;2022-09-29T00:03:57;98722.41;;;10.83;65.19
45323;BME280;31382;50.200;8.674;2022-09-29T00:08:58;98727.47;;;10.66;66.01
45323;BME280;31382;50.200;8.674;2022-09-29T00:14:00;98727.56;;;10.52;66.10
45323;BME280;31382;50.200;8.674;2022-09-29T00:19:01;98721.13;;;10.54;66.21
45323;BME280;31382;50.200;8.674;2022-09-29T00:24:03;98717.72;;;10.71;65.95
45323;BME280;31382;50.200;8.674;2022-09-29T00:29:04;98716.44;;;10.74;65.77
45323;BME280;31382;50.200;8.674;2022-09-29T00:34:06;98718.28;;;10.80;65.40
45323;BME280;31382;50.200;8.674;2022-09-29T00:39:07;98716.16;;;10.89;65.33
45323;BME280;31382;50.200;8.674;2022-09-29T00:49:29;98719.66;;;10.89;65.42
45323;BME280;31382;50.200;8.674;2022-09-29T00:54:41;98710.34;;;10.92;65.47
45323;BME280;31382;50.200;8.674;2022-09-29T00:59:50;98715.28;;;10.95;65.44
45323;BME280;31382;50.200;8.674;2022-09-29T01:04:53;98707.66;;;10.92;65.46
45323;BME280;31382;50.200;8.674;2022-09-29T01:09:55;98706.66;;;10.86;65.35
45323;BME280;31382;50.200;8.674;2022-09-29T01:14:57;98703.59;;;10.83;65.63
45323;BME280;31382;50.200;8.674;2022-09-29T01:20:17;98696.41;;;10.77;65.47
45323;BME280;31382;50.200;8.674;2022-09-29T01:36:16;98705.81;;;10.61;66.14
45323;BME280;31382;50.200;8.674;2022-09-29T01:46:47;98705.84;;;10.54;66.04
45323;BME280;31382;50.200;8.674;2022-09-29T01:51:59;98704.00;;;10.48;65.63
45323;BME280;31382;50.200;8.674;2022-09-29T01:57:08;98707.78;;;10.40;66.15
45323;BME280;31382;50.200;8.674;2022-09-29T02:02:18;98703.47;;;10.32;65.96
45323;BME280;31382;50.200;8.674;2022-09-29T02:07:37;98710.34;;;10.22;66.27
45323;BME280;31382;50.200;8.674;2022-09-29T02:12:42;98718.44;;;10.15;66.66
45323;BME280;31382;50.200;8.674;2022-09-29T02:17:47;98723.81;;;10.08;66.71
45323;BME280;31382;50.200;8.674;2022-09-29T02:22:50;98727.34;;;10.02;66.67
45323;BME280;31382;50.200;8.674;2022-09-29T02:27:52;98731.31;;;9.93;67.02
45323;BME280;31382;50.200;8.674;2022-09-29T02:32:53;98730.09;;;9.82;66.85
45323;BME280;31382;50.200;8.674;2022-09-29T02:38:03;98737.97;;;9.70;67.45
45323;BME280;31382;50.200;8.674;2022-09-29T02:43:13;98733.88;;;9.68;67.29
45323;BME280;31382;50.200;8.674;2022-09-29T02:59:11;98751.44;;;9.50;67.69
45323;BME280;31382;50.200;8.674;2022-09-29T03:04:14;98750.00;;;9.48;67.66
45323;BME280;31382;50.200;8.674;2022-09-29T03:09:16;98758.47;;;9.45;67.46
45323;BME280;31382;50.200;8.674;2022-09-29T03:14:17;98746.28;;;9.42;67.78
45323;BME280;31382;50.200;8.674;2022-09-29T03:19:19;98744.03;;;9.39;67.19
45323;BME280;31382;50.200;8.674;2022-09-29T03:24:20;98745.88;;;9.39;67.60
45323;BME280;31382;50.200;8.674;2022-09-29T03:29:22;98753.94;;;9.39;67.95
45323;BME280;31382;50.200;8.674;2022-09-29T03:34:23;98754.13;;;9.37;67.70
45323;BME280;31382;50.200;8.674;2022-09-29T03:39:25;98755.19;;;9.36;67.34
45323;BME280;31382;50.200;8.674;2022-09-29T03:44:26;98752.91;;;9.33;68.05
45323;BME280;31382;50.200;8.674;2022-09-29T03:49:28;98757.66;;;9.24;67.60
45323;BME280;31382;50.200;8.674;2022-09-29T03:54:30;98761.16;;;9.25;67.94
45323;BME280;31382;50.200;8.674;2022-09-29T03:59:31;98766.72;;;9.30;68.18
45323;BME280;31382;50.200;8.674;2022-09-29T04:04:32;98777.22;;;9.31;68.19
45323;BME280;31382;50.200;8.674;2022-09-29T04:09:34;98774.34;;;9.40;67.83
45323;BME280;31382;50.200;8.674;2022-09-29T04:14:35;98767.75;;;9.42;67.77
45323;BME280;31382;50.200;8.674;2022-09-29T04:19:36;98769.41;;;9.50;68.09
45323;BME280;31382;50.200;8.674;2022-09-29T04:24:39;98771.88;;;9.58;67.93
45323;BME280;31382;50.200;8.674;2022-09-29T04:29:41;98765.25;;;9.54;68.13
45323;BME280;31382;50.200;8.674;2022-09-29T04:34:42;98774.97;;;9.62;68.47
45323;BME280;31382;50.200;8.674;2022-09-29T04:39:44;98778.84;;;9.72;67.81
45323;BME280;31382;50.200;8.674;2022-09-29T04:44:45;98784.41;;;9.78;67.69
45323;BME280;31382;50.200;8.674;2022-09-29T04:49:47;98787.09;;;9.78;68.17
45323;BME280;31382;50.200;8.674;2022-09-29T04:54:48;98787.72;;;9.80;68.02
45323;BME280;31382;50.200;8.674;2022-09-29T04:59:49;98789.75;;;9.84;68.34
45323;BME280;31382;50.200;8.674;2022-09-29T05:04:52;98787.50;;;9.88;68.23
45323;BME280;31382;50.200;8.674;2022-09-29T05:09:53;98784.16;;;9.92;68.06
45323;BME280;31382;50.200;8.674;2022-09-29T05:14:55;98793.84;;;10.00;67.99
45323;BME280;31382;50.200;8.674;2022-09-29T05:19:56;98796.50;;;10.07;67.93
45323;BME280;31382;50.200;8.674;2022-09-29T05:24:57;98790.94;;;10.15;68.21
45323;BME280;31382;50.200;8.674;2022-09-29T05:29:59;98793.97;;;10.25;68.15
45323;BME280;31382;50.200;8.674;2022-09-29T05:35:00;98794.38;;;10.36;68.22
45323;BME280;31382;50.200;8.674;2022-09-29T05:40:02;98795.81;;;10.38;68.22
45323;BME280;31382;50.200;8.674;2022-09-29T05:45:05;98797.22;;;10.47;67.92
45323;BME280;31382;50.200;8.674;2022-09-29T05:50:09;98799.44;;;10.57;68.14
45323;BME280;31382;50.200;8.674;2022-09-29T05:55:11;98806.00;;;10.68;68.09
45323;BME280;31382;50.200;8.674;2022-09-29T06:00:13;98803.50;;;10.73;68.13
45323;BME280;31382;50.200;8.674;2022-09-29T06:05:14;98813.19;;;10.81;67.75
45323;BME280;31382;50.200;8.674;2022-09-29T06:10:16;98815.00;;;10.87;67.96
45323;BME280;31382;50.200;8.674;2022-09-29T06:15:17;98821.34;;;10.99;67.68
45323;BME280;31382;50.200;8.674;2022-09-29T06:20:18;98817.78;;;11.05;67.66
45323;BME280;31382;50.200;8.674;2022-09-29T06:25:20;98822.28;;;11.11;67.70
45323;BME280;31382;50.200;8.674;2022-09-29T06:30:22;98817.91;;;11.17;67.56
45323;BME280;31382;50.200;8.674;2022-09-29T06:35:23;98824.28;;;11.23;67.67
45323;BME280;31382;50.200;8.674;2022-09-29T06:40:43;98832.56;;;11.21;67.80
45323;BME280;31382;50.200;8.674;2022-09-29T06:45:44;98837.25;;;11.32;67.66
45323;BME280;31382;50.200;8.674;2022-09-29T06:50:46;98837.63;;;11.36;67.75
45323;BME280;31382;50.200;8.674;2022-09-29T06:55:57;98841.72;;;11.45;67.83
45323;BME280;31382;50.200;8.674;2022-09-29T07:01:01;98849.78;;;11.45;67.77
45323;BME280;31382;50.200;8.674;2022-09-29T07:06:05;98838.50;;;11.55;67.64
45323;BME280;31382;50.200;8.674;2022-09-29T07:11:20;98842.03;;;11.56;67.82
45323;BME280;31382;50.200;8.674;2022-09-29T07:16:22;98841.16;;;11.62;67.59
45323;BME280;31382;50.200;8.674;2022-09-29T07:21:24;98853.44;;;11.51;67.99
45323;BME280;31382;50.200;8.674;2022-09-29T07:26:26;98858.59;;;11.59;67.95
45323;BME280;31382;50.200;8.674;2022-09-29T07:31:27;98850.63;;;11.71;67.62
45323;BME280;31382;50.200;8.674;2022-09-29T07:36:32;98854.06;;;11.78;67.90
45323;BME280;31382;50.200;8.674;2022-09-29T07:41:33;98860.00;;;11.87;67.71
45323;BME280;31382;50.200;8.674;2022-09-29T07:46:35;98860.47;;;12.02;67.44
45323;BME280;31382;50.200;8.674;2022-09-29T07:51:36;98865.16;;;12.14;67.16
45323;BME280;31382;50.200;8.674;2022-09-29T07:56:37;98864.25;;;12.20;66.78
45323;BME280;31382;50.200;8.674;2022-09-29T08:01:39;98879.88;;;12.11;67.08
45323;BME280;31382;50.200;8.674;2022-09-29T08:06:41;98881.44;;;12.00;67.51
45323;BME280;31382;50.200;8.674;2022-09-29T08:11:43;98889.31;;;12.20;67.15
45323;BME280;31382;50.200;8.674;2022-09-29T08:16:45;98893.16;;;12.31;66.78
45323;BME280;31382;50.200;8.674;2022-09-29T08:21:46;98896.31;;;12.46;66.80
45323;BME280;31382;50.200;8.674;2022-09-29T08:26:50;98899.81;;;12.65;66.69
45323;BME280;31382;50.200;8.674;2022-09-29T08:31:51;98899.22;;;12.82;66.05
45323;BME280;31382;50.200;8.674;2022-09-29T08:36:54;98898.38;;;13.00;65.63
45323;BME280;31382;50.200;8.674;2022-09-29T08:42:24;98900.28;;;13.11;65.87
45323;BME280;31382;50.200;8.674;2022-09-29T08:47:28;98904.81;;;13.29;65.57
45323;BME280;31382;50.200;8.674;2022-09-29T08:52:52;98913.66;;;13.36;65.51
45323;BME280;31382;50.200;8.674;2022-09-29T08:57:57;98920.03;;;13.42;65.29
45323;BME280;31382;50.200;8.674;2022-09-29T09:08:55;98923.00;;;13.64;64.48
45323;BME280;31382;50.200;8.674;2022-09-29T09:14:17;98930.56;;;13.74;63.79
45323;BME280;31382;50.200;8.674;2022-09-29T09:24:57;98932.47;;;13.97;63.36
45323;BME280;31382;50.200;8.674;2022-09-29T09:30:04;98932.25;;;14.10;62.83
45323;BME280;31382;50.200;8.674;2022-09-29T09:41:00;98937.91;;;14.32;62.75
45323;BME280;31382;50.200;8.674;2022-09-29T09:51:23;98934.03;;;14.52;61.71
45323;BME280;31382;50.200;8.674;2022-09-29T10:01:38;98926.81;;;14.69;61.42
45323;BME280;31382;50.200;8.674;2022-09-29T10:06:40;98924.66;;;14.95;60.76
45323;BME280;31382;50.200;8.674;2022-09-29T10:11:42;98928.81;;;14.85;60.74
45323;BME280;31382;50.200;8.674;2022-09-29T10:16:47;98931.69;;;15.07;60.51
45323;BME280;31382;50.200;8.674;2022-09-29T10:21:50;98935.63;;;15.29;59.62
45323;BME280;31382;50.200;8.674;2022-09-29T10:26:54;98944.16;;;15.37;59.63
45323;BME280;31382;50.200;8.674;2022-09-29T10:32:06;98930.38;;;15.39;59.14
45323;BME280;31382;50.200;8.674;2022-09-29T10:42:33;98937.94;;;15.99;58.19
45323;BME280;31382;50.200;8.674;2022-09-29T10:47:35;98933.50;;;16.27;57.79
45323;BME280;31382;50.200;8.674;2022-09-29T10:52:41;98942.53;;;16.50;57.02
45323;BME280;31382;50.200;8.674;2022-09-29T10:57:44;98936.66;;;16.58;56.69
45323;BME280;31382;50.200;8.674;2022-09-29T11:02:47;98940.03;;;16.65;56.31
45323;BME280;31382;50.200;8.674;2022-09-29T11:07:50;98938.13;;;16.82;56.00
45323;BME280;31382;50.200;8.674;2022-09-29T11:12:52;98941.97;;;16.87;55.23
45323;BME280;31382;50.200;8.674;2022-09-29T11:17:54;98938.44;;;17.08;54.32
45323;BME280;31382;50.200;8.674;2022-09-29T11:28:32;98941.91;;;18.12;51.96
45323;BME280;31382;50.200;8.674;2022-09-29T11:33:52;98938.38;;;18.12;50.84
45323;BME280;31382;50.200;8.674;2022-09-29T11:44:31;98940.13;;;18.76;49.35
45323;BME280;31382;50.200;8.674;2022-09-29T11:55:05;98940.63;;;19.31;47.63
45323;BME280;31382;50.200;8.674;2022-09-29T12:00:17;98931.69;;;19.35;47.08
45323;BME280;31382;50.200;8.674;2022-09-29T12:05:28;98925.44;;;19.55;46.53
45323;BME280;31382;50.200;8.674;2022-09-29T12:11:06;98922.22;;;19.89;46.02
45323;BME280;31382;50.200;8.674;2022-09-29T12:16:34;98918.41;;;20.11;45.96
45323;BME280;31382;50.200;8.674;2022-09-29T12:21:48;98923.28;;;20.29;45.04
45323;BME280;31382;50.200;8.674;2022-09-29T12:26:51;98921.34;;;20.45;44.45
45323;BME280;31382;50.200;8.674;2022-09-29T12:31:55;98923.50;;;20.53;43.78
45323;BME280;31382;50.200;8.674;2022-09-29T12:37:04;98923.28;;;20.50;42.63
45323;BME280;31382;50.200;8.674;2022-09-29T12:48:06;98924.09;;;19.68;40.49
45323;BME280;31382;50.200;8.674;2022-09-29T12:58:35;98930.44;;;18.90;40.53
45323;BME280;31382;50.200;8.674;2022-09-29T13:04:02;98925.31;;;19.09;40.61
45323;BME280;31382;50.200;8.674;2022-09-29T13:09:24;98920.22;;;19.38;40.58
45323;BME280;31382;50.200;8.674;2022-09-29T13:20:25;98929.56;;;19.63;39.73
45323;BME280;31382;50.200;8.674;2022-09-29T13:30:59;98924.66;;;19.80;39.23
45323;BME280;31382;50.200;8.674;2022-09-29T13:36:02;98921.69;;;19.77;39.75
45323;BME280;31382;50.200;8.674;2022-09-29T13:41:13;98929.03;;;19.92;39.74
45323;BME280;31382;50.200;8.674;2022-09-29T13:56:47;98930.41;;;19.99;39.47
45323;BME280;31382;50.200;8.674;2022-09-29T14:01:48;98939.94;;;19.92;39.26
45323;BME280;31382;50.200;8.674;2022-09-29T14:06:51;98932.59;;;20.08;38.87
45323;BME280;31382;50.200;8.674;2022-09-29T14:11:54;98942.13;;;20.00;38.96
45323;BME280;31382;50.200;8.674;2022-09-29T14:22:04;98948.41;;;20.11;38.57
45323;BME280;31382;50.200;8.674;2022-09-29T14:32:22;98957.41;;;20.11;39.24
45323;BME280;31382;50.200;8.674;2022-09-29T14:37:32;98967.50;;;19.90;39.41
45323;BME280;31382;50.200;8.674;2022-09-29T14:42:34;98978.66;;;19.78;39.62
45323;BME280;31382;50.200;8.674;2022-09-29T14:48:01;98971.81;;;19.71;39.31
45323;BME280;31382;50.200;8.674;2022-09-29T14:53:39;98973.44;;;19.61;39.49
45323;BME280;31382;50.200;8.674;2022-09-29T14:58:56;98978.63;;;19.68;39.40
45323;BME280;31382;50.200;8.674;2022-09-29T15:04:09;98981.13;;;19.85;39.20
45323;BME280;31382;50.200;8.674;2022-09-29T15:09:18;98995.31;;;19.87;38.96
45323;BME280;31382;50.200;8.674;2022-09-29T15:19:39;98994.13;;;19.52;38.75
45323;BME280;31382;50.200;8.674;2022-09-29T15:30:15;98997.59;;;19.32;38.11
45323;BME280;31382;50.200;8.674;2022-09-29T15:35:24;98994.25;;;19.15;38.78
45323;BME280;31382;50.200;8.674;2022-09-29T15:40:34;98999.97;;;19.08;39.21
45323;BME280;31382;50.200;8.674;2022-09-29T15:45:39;99008.72;;;19.20;38.64
45323;BME280;31382;50.200;8.674;2022-09-29T15:50:42;99005.38;;;18.98;39.05
45323;BME280;31382;50.200;8.674;2022-09-29T15:55:43;99008.25;;;18.81;39.38
45323;BME280;31382;50.200;8.674;2022-09-29T16:00:45;99020.00;;;18.87;39.88
45323;BME280;31382;50.200;8.674;2022-09-29T16:06:02;99025.19;;;18.88;39.90
45323;BME280;31382;50.200;8.674;2022-09-29T16:11:06;99033.06;;;18.85;40.15
45323;BME280;31382;50.200;8.674;2022-09-29T16:16:10;99040.59;;;18.77;40.73
45323;BME280;31382;50.200;8.674;2022-09-29T16:21:14;99052.03;;;18.74;40.82
45323;BME280;31382;50.200;8.674;2022-09-29T16:26:33;99054.09;;;18.62;41.31
45323;BME280;31382;50.200;8.674;2022-09-29T16:31:39;99061.31;;;18.46;41.39
45323;BME280;31382;50.200;8.674;2022-09-29T16:36:46;99077.69;;;18.19;41.55
45323;BME280;31382;50.200;8.674;2022-09-29T16:41:51;99070.50;;;18.08;42.65
45323;BME280;31382;50.200;8.674;2022-09-29T16:47:13;99078.16;;;17.83;44.18
45323;BME280;31382;50.200;8.674;2022-09-29T16:52:20;99085.31;;;17.73;44.85
45323;BME280;31382;50.200;8.674;2022-09-29T16:57:26;99090.41;;;17.42;45.47
45323;BME280;31382;50.200;8.674;2022-09-29T17:02:30;99096.69;;;17.25;46.15
45323;BME280;31382;50.200;8.674;2022-09-29T17:07:38;99092.25;;;17.19;46.64
45323;BME280;31382;50.200;8.674;2022-09-29T17:12:40;99103.47;;;17.06;47.48
45323;BME280;31382;50.200;8.674;2022-09-29T17:17:47;99108.94;;;16.89;48.17
45323;BME280;31382;50.200;8.674;2022-09-29T17:22:49;99113.75;;;16.70;48.39
45323;BME280;31382;50.200;8.674;2022-09-29T17:27:51;99118.84;;;16.50;49.42
45323;BME280;31382;50.200;8.674;2022-09-29T17:33:14;99119.88;;;16.32;50.28
45323;BME280;31382;50.200;8.674;2022-09-29T17:38:16;99135.28;;;16.14;51.11
45323;BME280;31382;50.200;8.674;2022-09-29T17:43:18;99135.22;;;15.97;51.73
45323;BME280;31382;50.200;8.674;2022-09-29T17:48:20;99150.28;;;15.76;52.48
45323;BME280;31382;50.200;8.674;2022-09-29T17:53:22;99152.28;;;15.57;52.81
45323;BME280;31382;50.200;8.674;2022-09-29T17:58:24;99156.19;;;15.38;53.57
45323;BME280;31382;50.200;8.674;2022-09-29T18:03:25;99160.56;;;15.15;53.98
45323;BME280;31382;50.200;8.674;2022-09-29T18:08:29;99162.44;;;15.03;54.36
45323;BME280;31382;50.200;8.674;2022-09-29T18:13:30;99169.03;;;14.83;55.00
45323;BME280;31382;50.200;8.674;2022-09-29T18:18:32;99175.78;;;14.62;56.17
45323;BME280;31382;50.200;8.674;2022-09-29T18:23:35;99173.72;;;14.46;56.51
45323;BME280;31382;50.200;8.674;2022-09-29T18:28:37;99181.88;;;14.27;56.85
45323;BME280;31382;50.200;8.674;2022-09-29T18:33:38;99180.56;;;14.00;57.49
45323;BME280;31382;50.200;8.674;2022-09-29T18:38:40;99182.09;;;13.77;58.70
45323;BME280;31382;50.200;8.674;2022-09-29T18:43:41;99188.75;;;13.56;59.16
45323;BME280;31382;50.200;8.674;2022-09-29T18:48:43;99196.94;;;13.49;59.53
45323;BME280;31382;50.200;8.674;2022-09-29T18:53:44;99199.97;;;13.35;59.56
45323;BME280;31382;50.200;8.674;2022-09-29T18:58:45;99208.09;;;13.09;60.18
45323;BME280;31382;50.200;8.674;2022-09-29T19:03:47;99209.41;;;13.00;60.50
45323;BME280;31382;50.200;8.674;2022-09-29T19:08:49;99214.00;;;12.93;60.80
45323;BME280;31382;50.200;8.674;2022-09-29T19:13:52;99222.44;;;12.78;61.03
45323;BME280;31382;50.200;8.674;2022-09-29T19:18:57;99235.72;;;12.73;61.17
45323;BME280;31382;50.200;8.674;2022-09-29T19:23:59;99245.34;;;12.62;61.52
45323;BME280;31382;50.200;8.674;2022-09-29T19:29:01;99258.03;;;12.62;61.58
45323;BME280;31382;50.200;8.674;2022-09-29T19:34:02;99274.19;;;12.62;61.74
45323;BME280;31382;50.200;8.674;2022-09-29T19:39:03;99273.78;;;12.58;61.78
45323;BME280;31382;50.200;8.674;2022-09-29T19:44:05;99277.19;;;12.40;62.15
45323;BME280;31382;50.200;8.674;2022-09-29T19:49:08;99294.59;;;12.38;62.10
45323;BME280;31382;50.200;8.674;2022-09-29T19:54:10;99295.25;;;12.33;62.14
45323;BME280;31382;50.200;8.674;2022-09-29T19:59:13;99295.50;;;12.25;62.34
45323;BME280;31382;50.200;8.674;2022-09-29T20:04:17;99304.06;;;12.08;62.62
45323;BME280;31382;50.200;8.674;2022-09-29T20:09:19;99309.28;;;11.90;63.26
45323;BME280;31382;50.200;8.674;2022-09-29T20:14:22;99310.31;;;11.89;63.21
45323;BME280;31382;50.200;8.674;2022-09-29T20:19:24;99323.56;;;11.90;63.09
45323;BME280;31382;50.200;8.674;2022-09-29T20:24:26;99322.91;;;11.88;63.25
45323;BME280;31382;50.200;8.674;2022-09-29T20:29:29;99322.75;;;11.63;63.86
45323;BME280;31382;50.200;8.674;2022-09-29T20:34:30;99320.47;;;11.47;63.89
45323;BME280;31382;50.200;8.674;2022-09-29T20:39:32;99329.38;;;11.47;64.25
45323;BME280;31382;50.200;8.674;2022-09-29T20:44:34;99334.75;;;11.34;64.39
45323;BME280;31382;50.200;8.674;2022-09-29T20:49:36;99345.94;;;11.38;64.14
45323;BME280;31382;50.200;8.674;2022-09-29T20:54:38;99350.47;;;11.30;64.19
45323;BME280;31382;50.200;8.674;2022-09-29T20:59:39;99351.91;;;11.26;64.12
45323;BME280;31382;50.200;8.674;2022-09-29T21:04:41;99355.00;;;11.17;64.31
45323;BME280;31382;50.200;8.674;2022-09-29T21:09:42;99355.22;;;11.08;64.60
45323;BME280;31382;50.200;8.674;2022-09-29T21:14:44;99352.47;;;11.02;64.59
45323;BME280;31382;50.200;8.674;2022-09-29T21:19:45;99350.59;;;10.89;64.66
45323;BME280;31382;50.200;8.674;2022-09-29T21:24:47;99361.56;;;10.81;64.74
45323;BME280;31382;50.200;8.674;2022-09-29T21:29:48;99373.88;;;10.62;65.30
45323;BME280;31382;50.200;8.674;2022-09-29T21:34:50;99373.03;;;10.55;65.27
45323;BME280;31382;50.200;8.674;2022-09-29T21:39:51;99378.34;;;10.48;65.34
45323;BME280;31382;50.200;8.674;2022-09-29T21:44:53;99380.25;;;10.54;65.41
45323;BME280;31382;50.200;8.674;2022-09-29T21:49:58;99386.47;;;10.55;65.04
45323;BME280;31382;50.200;8.674;2022-09-29T21:54:59;99394.53;;;10.55;64.92
45323;BME280;31382;50.200;8.674;2022-09-29T22:00:01;99399.03;;;10.47;65.06
45323;BME280;31382;50.200;8.674;2022-09-29T22:05:02;99401.91;;;10.46;64.85
45323;BME280;31382;50.200;8.674;2022-09-29T22:10:04;99412.44;;;10.41;65.07
45323;BME280;31382;50.200;8.674;2022-09-29T22:15:06;99411.38;;;10.35;64.95
45323;BME280;31382;50.200;8.674;2022-09-29T22:20:08;99415.72;;;10.08;65.87
45323;BME280;31382;50.200;8.674;2022-09-29T22:25:09;99412.84;;;10.09;65.83
45323;BME280;31382;50.200;8.674;2022-09-29T22:30:11;99414.88;;;10.07;65.58
45323;BME280;31382;50.200;8.674;2022-09-29T22:35:12;99421.44;;;10.05;65.72
45323;BME280;31382;50.200;8.674;2022-09-29T22:40:14;99424.34;;;10.03;65.19
45323;BME280;31382;50.200;8.674;2022-09-29T22:45:15;99431.97;;;10.00;66.05
45323;BME280;31382;50.200;8.674;2022-09-29T22:50:17;99436.69;;;9.98;65.55
45323;BME280;31382;50.200;8.674;2022-09-29T22:55:18;99443.66;;;9.92;65.80
45323;BME280;31382;50.200;8.674;2022-09-29T23:00:20;99441.78;;;9.86;65.69
45323;BME280;31382;50.200;8.674;2022-09-29T23:05:22;99444.59;;;9.78;65.60
45323;BME280;31382;50.200;8.674;2022-09-29T23:10:23;99449.50;;;9.74;65.52
45323;BME280;31382;50.200;8.674;2022-09-29T23:15:24;99464.84;;;9.59;65.90
45323;BME280;31382;50.200;8.674;2022-09-29T23:20:26;99465.28;;;9.62;66.14
45323;BME280;31382;50.200;8.674;2022-09-29T23:25:27;99475.91;;;9.70;66.07
45323;BME280;31382;50.200;8.674;2022-09-29T23:30:33;99476.16;;;9.76;66.03
45323;BME280;31382;50.200;8.674;2022-09-29T23:35:35;99481.72;;;9.74;66.75
45323;BME280;31382;50.200;8.674;2022-09-29T23:40:36;99473.66;;;9.74;66.43
45323;BME280;31382;50.200;8.674;2022-09-29T23:45:37;99470.72;;;9.69;66.90
45323;BME280;31382;50.200;8.674;2022-09-29T23:50:41;99466.75;;;9.65;67.05
45323;BME280;31382;50.200;8.674;2022-09-29T23:55:44;99475.31;;;9.53;66.76
